Time;durP1;ratioP1;P1;durP2;ratioP2;P2;SDS_P1;SDS_P2;PMS_P1;PMS_P2;Temp;Humidity;BMP_temperature;BMP_pressure;BME280_temperature;BME280_humidity;BME280_pressure;Samples;Min_cycle;Max_cycle;Signal;HPM_P1;HPM_P2
2024/01/17 00:00:21;;;;;;;16.83;9.38;;;;;;;-2.80;100.00;100066.97;5074243;28;20041;-49
2024/01/17 00:02:49;;;;;;;17.05;9.30;;;;;;;-2.79;100.00;100066.94;5074142;28;20033;-48
2024/01/17 00:05:18;;;;;;;17.45;8.63;;;;;;;-2.78;100.00;100063.47;5073986;28;20060;-49
2024/01/17 00:07:47;;;;;;;15.88;8.18;;;;;;;-2.81;100.00;100054.97;5074153;28;20037;-48
2024/01/17 00:10:16;;;;;;;16.25;8.32;;;;;;;-2.83;100.00;100049.03;5074032;28;20086;-45
2024/01/17 00:12:44;;;;;;;15.18;8.68;;;;;;;-2.85;100.00;100045.63;5073994;28;20040;-46
2024/01/17 00:15:13;;;;;;;16.67;8.93;;;;;;;-2.88;100.00;100049.13;5073995;28;20048;-45
2024/01/17 00:17:42;;;;;;;13.77;8.35;;;;;;;-2.91;100.00;100041.47;5073895;28;20059;-46
2024/01/17 00:20:11;;;;;;;15.73;9.05;;;;;;;-2.91;100.00;100047.44;5071039;28;20159;-49
2024/01/17 00:22:45;;;;;;;18.13;8.70;;;;;;;-2.90;100.00;100033.72;5070736;28;20510;-48
2024/01/17 00:25:42;;;;;;;16.23;8.13;;;;;;;-2.89;100.00;100027.69;5073285;28;20056;-53
2024/01/17 00:28:10;;;;;;;14.52;8.60;;;;;;;-2.85;100.00;100019.88;5073872;28;20489;-52
2024/01/17 00:30:46;;;;;;;15.80;8.38;;;;;;;-2.89;100.00;100019.09;5073927;28;20102;-50
2024/01/17 00:33:16;;;;;;;20.02;9.07;;;;;;;-2.92;100.00;100016.59;5071371;28;20041;-49
2024/01/17 00:35:44;;;;;;;14.00;7.72;;;;;;;-2.96;100.00;100018.41;5070417;28;20041;-50
2024/01/17 00:38:12;;;;;;;18.73;8.60;;;;;;;-2.98;100.00;100007.31;5070634;28;20082;-53
2024/01/17 00:40:40;;;;;;;15.68;8.55;;;;;;;-2.98;100.00;100016.75;5071417;28;20049;-49
2024/01/17 00:43:09;;;;;;;14.68;8.07;;;;;;;-3.01;100.00;99997.09;5073148;28;20037;-51
2024/01/17 00:45:37;;;;;;;13.20;7.68;;;;;;;-3.03;100.00;99992.84;5070012;28;20155;-51
2024/01/17 00:48:05;;;;;;;14.05;8.00;;;;;;;-3.01;100.00;99994.50;5069603;28;20044;-51
2024/01/17 00:50:35;;;;;;;16.17;8.35;;;;;;;-3.03;100.00;99987.72;5072864;28;20049;-51
2024/01/17 00:53:03;;;;;;;15.35;7.78;;;;;;;-3.04;100.00;99986.88;5070338;28;20051;-51
2024/01/17 00:55:32;;;;;;;16.77;8.05;;;;;;;-3.07;100.00;99984.34;5069773;28;20049;-51
2024/01/17 00:58:00;;;;;;;19.25;7.90;;;;;;;-3.08;100.00;99980.06;5069442;28;20518;-49
2024/01/17 01:00:28;;;;;;;15.57;7.50;;;;;;;-3.13;100.00;99981.94;5069597;28;20048;-50
2024/01/17 01:02:56;;;;;;;13.73;7.30;;;;;;;-3.13;100.00;99972.47;5068783;28;20048;-51
2024/01/17 01:05:24;;;;;;;13.05;7.07;;;;;;;-3.13;100.00;99962.19;5070081;28;20059;-50
2024/01/17 01:07:54;;;;;;;14.52;7.55;;;;;;;-3.14;100.00;99963.06;5072915;28;20044;-50
2024/01/17 01:10:22;;;;;;;12.25;7.20;;;;;;;-3.15;100.00;99963.97;5071042;28;20075;-49
2024/01/17 01:12:50;;;;;;;12.38;7.13;;;;;;;-3.16;100.00;99957.13;5069504;28;20049;-51
2024/01/17 01:15:18;;;;;;;15.43;7.25;;;;;;;-3.17;100.00;99945.13;5069622;28;20045;-49
2024/01/17 01:17:46;;;;;;;14.65;7.85;;;;;;;-3.22;100.00;99946.94;5068849;28;20124;-51
2024/01/17 01:20:14;;;;;;;14.27;7.13;;;;;;;-3.25;100.00;99940.16;5069103;28;20415;-48
2024/01/17 01:22:43;;;;;;;13.88;7.00;;;;;;;-3.26;100.00;99935.91;5070833;28;20088;-49
2024/01/17 01:25:12;;;;;;;15.52;7.57;;;;;;;-3.27;100.00;99933.38;5072681;28;20052;-51
2024/01/17 01:27:41;;;;;;;13.40;7.78;;;;;;;-3.25;100.00;99929.84;5072700;28;20369;-51
2024/01/17 01:30:09;;;;;;;14.50;7.68;;;;;;;-3.24;100.00;99928.97;5068968;28;20052;-50
2024/01/17 01:32:38;;;;;;;15.73;7.47;;;;;;;-3.32;100.00;99920.59;5068327;28;20048;-48
2024/01/17 01:35:07;;;;;;;13.45;6.95;;;;;;;-3.31;100.00;99914.59;5070068;28;20060;-51
2024/01/17 01:37:38;;;;;;;20.20;8.43;;;;;;;-3.34;100.00;99917.22;5069361;28;20048;-52
2024/01/17 01:40:08;;;;;;;14.38;7.32;;;;;;;-3.40;100.00;99912.22;5069328;28;20044;-48
2024/01/17 01:42:38;;;;;;;15.25;7.65;;;;;;;-3.43;100.00;99912.28;5068714;28;20119;-50
2024/01/17 01:45:07;;;;;;;15.98;7.32;;;;;;;-3.48;100.00;99914.94;5068730;28;20040;-50
2024/01/17 01:47:35;;;;;;;16.10;7.18;;;;;;;-3.50;100.00;99910.75;5070003;28;20044;-50
2024/01/17 01:50:06;;;;;;;16.15;7.88;;;;;;;-3.59;100.00;99910.03;5072218;28;20044;-49
2024/01/17 01:52:35;;;;;;;13.60;8.20;;;;;;;-3.61;100.00;99914.38;5072407;28;20076;-53
2024/01/17 01:55:04;;;;;;;13.98;7.43;;;;;;;-3.64;100.00;99904.16;5071718;28;20495;-52
2024/01/17 01:57:34;;;;;;;15.05;8.00;;;;;;;-3.66;100.00;99912.78;5068935;28;20499;-51
2024/01/17 02:00:04;;;;;;;16.20;7.95;;;;;;;-3.63;100.00;99908.41;5068488;28;20052;-48
2024/01/17 02:02:33;;;;;;;15.65;8.70;;;;;;;-3.66;100.00;99902.50;5072043;28;20502;-51
2024/01/17 02:05:04;;;;;;;14.85;7.90;;;;;;;-3.72;100.00;99900.94;5069087;28;20577;-48
2024/01/17 02:07:34;;;;;;;14.70;8.05;;;;;;;-3.74;100.00;99893.25;5068369;28;20130;-49
2024/01/17 02:10:02;;;;;;;17.02;8.65;;;;;;;-3.78;100.00;99891.59;5068870;28;20045;-47
2024/01/17 02:12:32;;;;;;;16.05;8.63;;;;;;;-3.85;100.00;99884.91;5068080;28;20068;-49
2024/01/17 02:15:00;;;;;;;12.65;8.15;;;;;;;-3.86;100.00;99882.38;5068328;28;20055;-48
2024/01/17 02:17:30;;;;;;;15.02;7.82;;;;;;;-3.84;100.00;99878.06;5068640;28;20102;-50
2024/01/17 02:19:59;;;;;;;14.93;8.35;;;;;;;-3.87;100.00;99863.53;5071832;28;20048;-52
2024/01/17 02:22:29;;;;;;;17.85;8.23;;;;;;;-3.85;100.00;99866.09;5071804;28;20044;-48
2024/01/17 02:25:03;;;;;;;13.13;6.82;;;;;;;-3.85;100.00;99859.22;5071546;28;20048;-45
2024/01/17 02:27:32;;;;;;;16.67;8.35;;;;;;;-3.85;100.00;99856.63;5071729;28;20037;-45
2024/01/17 02:30:00;;;;;;;15.25;8.00;;;;;;;-3.83;100.00;99854.03;5071912;28;20062;-45
2024/01/17 02:32:28;;;;;;;18.45;8.68;;;;;;;-3.85;100.00;99848.94;5071206;28;20048;-46
2024/01/17 02:34:57;;;;;;;13.85;7.88;;;;;;;-3.87;100.00;99845.56;5071229;28;20041;-46
2024/01/17 02:37:25;;;;;;;15.60;8.20;;;;;;;-3.88;100.00;99840.47;5071673;28;20048;-47
2024/01/17 02:39:53;;;;;;;14.75;8.02;;;;;;;-3.88;100.00;99836.16;5071558;28;20439;-46
2024/01/17 02:42:23;;;;;;;15.50;8.13;;;;;;;-3.87;100.00;99824.16;5071788;28;20502;-45
2024/01/17 02:44:51;;;;;;;16.63;6.93;;;;;;;-3.91;100.00;99821.66;5071320;28;20052;-47
2024/01/17 02:47:19;;;;;;;17.63;8.77;;;;;;;-3.93;100.00;99820.00;5071477;28;20044;-46
2024/01/17 02:49:48;;;;;;;14.88;7.88;;;;;;;-3.97;100.00;99811.50;5071701;28;20068;-46
2024/01/17 02:52:16;;;;;;;14.75;8.13;;;;;;;-3.98;100.00;99804.69;5071537;28;20052;-45
2024/01/17 02:54:44;;;;;;;13.57;7.75;;;;;;;-3.97;100.00;99800.38;5071308;28;20045;-50
2024/01/17 02:57:12;;;;;;;12.80;7.35;;;;;;;-3.97;100.00;99793.50;5070143;28;20147;-48
2024/01/17 02:59:42;;;;;;;11.73;6.72;;;;;;;-3.97;100.00;99801.22;5068203;28;20052;-51
2024/01/17 03:02:10;;;;;;;16.25;7.35;;;;;;;-3.95;100.00;99788.38;5068070;28;20037;-53
2024/01/17 03:04:38;;;;;;;16.50;8.18;;;;;;;-3.95;100.00;99793.50;5071375;28;20150;-49
2024/01/17 03:07:06;;;;;;;11.65;7.05;;;;;;;-3.98;100.00;99781.56;5069598;28;20543;-49
2024/01/17 03:09:38;;;;;;;16.15;7.97;;;;;;;-3.98;100.00;99778.13;5068473;28;20071;-50
2024/01/17 03:12:07;;;;;;;12.40;6.82;;;;;;;-3.97;100.00;99782.41;5070664;28;20464;-51
2024/01/17 03:14:37;;;;;;;16.17;7.85;;;;;;;-3.96;100.00;99773.81;5067819;28;20585;-51
2024/01/17 03:17:08;;;;;;;14.00;6.60;;;;;;;-3.98;100.00;99773.88;5067036;28;20085;-48
2024/01/17 03:19:37;;;;;;;18.27;7.10;;;;;;;-3.95;100.00;99778.91;5074833;28;20056;-47
2024/01/17 03:22:06;;;;;;;14.05;7.22;;;;;;;-3.94;100.00;99780.63;5075503;28;20131;-46
2024/01/17 03:24:34;;;;;;;13.02;7.35;;;;;;;-3.97;100.00;99770.38;5073643;28;20051;-49
2024/01/17 03:27:02;;;;;;;14.45;7.22;;;;;;;-3.97;100.00;99767.81;5075083;28;20055;-45
2024/01/17 03:29:31;;;;;;;15.07;7.63;;;;;;;-3.95;100.00;99763.50;5075073;28;20040;-50
2024/01/17 03:31:59;;;;;;;16.30;6.88;;;;;;;-3.96;100.00;99755.84;5075127;28;20500;-52
2024/01/17 03:34:28;;;;;;;13.52;6.53;;;;;;;-3.95;100.00;99763.50;5075180;28;20037;-49
2024/01/17 03:36:57;;;;;;;16.00;6.88;;;;;;;-3.97;100.00;99747.25;5073305;28;20165;-52
2024/01/17 03:39:25;;;;;;;13.52;7.35;;;;;;;-3.98;100.00;99750.75;5071689;28;20495;-47
2024/01/17 03:41:53;;;;;;;16.23;7.70;;;;;;;-3.98;100.00;99743.03;5071106;28;20071;-52
2024/01/17 03:44:22;;;;;;;13.60;6.47;;;;;;;-3.96;100.00;99735.28;5070747;28;20373;-52
2024/01/17 03:46:51;;;;;;;15.20;7.40;;;;;;;-3.96;100.00;99727.56;5071038;28;20580;-49
2024/01/17 03:49:19;;;;;;;14.63;7.32;;;;;;;-3.97;100.00;99726.72;5073895;28;20434;-49
2024/01/17 03:51:49;;;;;;;14.27;7.47;;;;;;;-3.98;100.00;99716.47;5074614;28;20526;-48
2024/01/17 03:54:18;;;;;;;11.48;6.80;;;;;;;-3.98;100.00;99712.22;5072318;28;20057;-48
2024/01/17 03:56:46;;;;;;;16.15;6.82;;;;;;;-3.96;100.00;99701.88;5071399;28;20453;-50
2024/01/17 03:59:14;;;;;;;15.80;7.38;;;;;;;-3.97;100.00;99698.47;5070558;28;20048;-51
2024/01/17 04:01:44;;;;;;;15.35;7.05;;;;;;;-3.96;100.00;99696.75;5070652;28;20049;-51
2024/01/17 04:04:12;;;;;;;14.23;7.05;;;;;;;-4.00;100.00;99687.44;5069690;28;20507;-49
2024/01/17 04:06:41;;;;;;;13.10;6.72;;;;;;;-4.04;100.00;99678.09;5073444;28;20056;-48
2024/01/17 04:09:10;;;;;;;13.57;6.50;;;;;;;-3.98;100.00;99670.25;5074247;28;20040;-49
2024/01/17 04:11:38;;;;;;;17.52;6.78;;;;;;;-3.99;100.00;99668.56;5073940;28;20438;-52
2024/01/17 04:14:07;;;;;;;14.70;7.28;;;;;;;-4.03;100.00;99662.66;5071740;28;20155;-51
2024/01/17 04:16:37;;;;;;;14.80;7.32;;;;;;;-4.00;100.00;99662.56;5070751;28;20057;-50
2024/01/17 04:19:05;;;;;;;13.45;7.47;;;;;;;-4.00;100.00;99656.59;5070579;28;20526;-49
2024/01/17 04:21:33;;;;;;;14.27;7.07;;;;;;;-4.04;100.00;99649.84;5073180;28;20483;-52
2024/01/17 04:24:02;;;;;;;13.18;7.22;;;;;;;-4.08;100.00;99651.63;5069106;28;20408;-48
2024/01/17 04:26:31;;;;;;;15.48;7.95;;;;;;;-4.13;100.00;99646.63;5070545;28;20044;-48
2024/01/17 04:29:00;;;;;;;14.90;7.50;;;;;;;-4.11;100.00;99642.28;5069676;28;20052;-52
2024/01/17 04:31:32;;;;;;;16.95;7.50;;;;;;;-4.10;100.00;99635.44;5068454;28;20102;-50
2024/01/17 04:34:02;;;;;;;12.48;7.75;;;;;;;-4.10;100.00;99630.31;5069775;28;20047;-49
2024/01/17 04:36:31;;;;;;;16.85;8.35;;;;;;;-4.15;100.00;99634.69;5071199;28;20071;-49
2024/01/17 04:39:00;;;;;;;15.48;8.35;;;;;;;-4.18;100.00;99609.94;5072378;28;20052;-50
2024/01/17 04:41:29;;;;;;;16.90;8.50;;;;;;;-4.21;100.00;99604.00;5070953;28;20455;-51
2024/01/17 04:43:58;;;;;;;18.65;9.10;;;;;;;-4.21;100.00;99596.31;5069473;28;20062;-47
2024/01/17 04:46:27;;;;;;;17.08;8.32;;;;;;;-4.28;100.00;99588.78;5069950;28;20047;-50
2024/01/17 04:48:55;;;;;;;16.27;8.88;;;;;;;-4.28;100.00;99588.78;5071214;28;20408;-50
2024/01/17 04:51:25;;;;;;;20.02;9.48;;;;;;;-4.27;100.00;99576.78;5071694;28;20127;-52
2024/01/17 04:53:54;;;;;;;17.25;9.52;;;;;;;-4.29;100.00;99575.97;5069790;28;20403;-51
2024/01/17 04:56:24;;;;;;;18.30;8.82;;;;;;;-4.27;100.00;99576.78;5068623;28;20040;-54
2024/01/17 04:58:53;;;;;;;16.92;9.30;;;;;;;-4.29;100.00;99565.72;5069400;28;20585;-49
2024/01/17 05:01:22;;;;;;;16.25;9.27;;;;;;;-4.31;100.00;99567.47;5068020;28;20052;-51
2024/01/17 05:03:52;;;;;;;17.13;9.05;;;;;;;-4.31;100.00;99562.31;5069371;28;20797;-55
2024/01/17 05:06:21;;;;;;;16.38;8.85;;;;;;;-4.31;100.00;99552.91;5070065;28;20048;-52
2024/01/17 05:08:50;;;;;;;15.50;8.63;;;;;;;-4.32;100.00;99556.34;5069758;28;20050;-45
2024/01/17 05:11:22;;;;;;;16.23;8.60;;;;;;;-4.35;100.00;99553.88;5070346;28;20114;-49
2024/01/17 05:13:50;;;;;;;15.98;8.13;;;;;;;-4.35;100.00;99548.72;5072748;28;20048;-46
2024/01/17 05:16:17;;;;;;;15.38;8.68;;;;;;;-4.36;100.00;99535.91;5072863;28;20521;-51
2024/01/17 05:18:47;;;;;;;17.23;8.65;;;;;;;-4.32;100.00;99543.53;5069967;28;20146;-49
2024/01/17 05:21:16;;;;;;;16.90;8.48;;;;;;;-4.30;100.00;99536.59;5069867;28;20159;-45
2024/01/17 05:23:44;;;;;;;16.67;8.85;;;;;;;-4.32;100.00;99529.81;5072724;28;20086;-48
2024/01/17 05:26:13;;;;;;;14.63;8.55;;;;;;;-4.32;100.00;99524.69;5072844;28;20037;-46
2024/01/17 05:28:41;;;;;;;14.10;8.05;;;;;;;-4.33;100.00;99512.75;5072760;28;20044;-46
2024/01/17 05:31:10;;;;;;;17.88;9.90;;;;;;;-4.34;100.00;99506.75;5072783;28;20058;-46
2024/01/17 05:33:38;;;;;;;15.82;8.60;;;;;;;-4.33;100.00;99500.75;5072723;28;20160;-48
2024/01/17 05:36:08;;;;;;;14.57;8.02;;;;;;;-4.32;100.00;99496.44;5072660;28;20044;-45
2024/01/17 05:38:37;;;;;;;16.15;9.30;;;;;;;-4.32;100.00;99496.44;5072571;28;20036;-45
2024/01/17 05:41:05;;;;;;;19.05;9.15;;;;;;;-4.29;100.00;99486.13;5071603;28;20044;-46
2024/01/17 05:43:34;;;;;;;15.73;8.35;;;;;;;-4.30;100.00;99494.69;5072554;28;20050;-48
2024/01/17 05:46:02;;;;;;;18.63;8.82;;;;;;;-4.30;100.00;99485.25;5072342;28;20045;-46
2024/01/17 05:48:30;;;;;;;16.15;9.23;;;;;;;-4.32;100.00;99481.91;5072287;28;20043;-46
2024/01/17 05:50:59;;;;;;;15.73;9.60;;;;;;;-4.30;100.00;99480.13;5072162;28;20048;-45
2024/01/17 05:53:29;;;;;;;16.70;8.55;;;;;;;-4.30;100.00;99481.84;5072324;28;20044;-45
2024/01/17 05:55:58;;;;;;;15.73;8.88;;;;;;;-4.32;100.00;99474.19;5072352;28;20052;-44
2024/01/17 05:58:32;;;;;;;14.05;7.90;;;;;;;-4.32;100.00;99468.19;5072173;28;20048;-45
2024/01/17 06:01:00;;;;;;;14.50;7.95;;;;;;;-4.26;100.00;99456.06;5071916;28;20044;-46
2024/01/17 06:03:28;;;;;;;15.38;8.02;;;;;;;-4.29;100.00;99450.19;5071979;28;20055;-45
2024/01/17 06:05:57;;;;;;;14.30;8.25;;;;;;;-4.30;100.00;99443.34;5071496;28;20442;-47
2024/01/17 06:08:25;;;;;;;17.30;8.98;;;;;;;-4.31;100.00;99436.53;5072002;28;20451;-45
2024/01/17 06:10:55;;;;;;;15.10;8.52;;;;;;;-4.30;100.00;99423.63;5071680;28;20044;-50
2024/01/17 06:13:23;;;;;;;17.52;9.35;;;;;;;-4.32;100.00;99422.00;5071597;28;20119;-48
2024/01/17 06:15:51;;;;;;;16.13;8.48;;;;;;;-4.31;100.00;99421.13;5069515;28;20061;-49
2024/01/17 06:18:19;;;;;;;17.17;8.82;;;;;;;-4.24;100.00;99427.75;5068228;28;20147;-50
2024/01/17 06:20:48;;;;;;;15.52;8.15;;;;;;;-4.23;100.00;99420.91;5066890;28;20153;-50
2024/01/17 06:23:17;;;;;;;14.75;8.20;;;;;;;-4.23;100.00;99423.47;5070723;28;20535;-48
2024/01/17 06:25:45;;;;;;;15.80;8.60;;;;;;;-4.23;100.00;99426.06;5071758;28;20045;-50
2024/01/17 06:28:14;;;;;;;14.80;8.40;;;;;;;-4.21;100.00;99416.56;5071703;28;20048;-52
2024/01/17 06:30:43;;;;;;;15.98;8.88;;;;;;;-4.25;100.00;99419.22;5071785;28;20399;-51
2024/01/17 06:33:11;;;;;;;15.68;8.88;;;;;;;-4.21;100.00;99419.13;5071228;28;20101;-48
2024/01/17 06:35:40;;;;;;;21.08;8.95;;;;;;;-4.18;100.00;99419.06;5071779;28;20053;-45
2024/01/17 06:38:08;;;;;;;14.82;8.38;;;;;;;-4.21;100.00;99416.56;5071545;28;20042;-50
2024/01/17 06:40:36;;;;;;;18.05;8.52;;;;;;;-4.15;100.00;99408.72;5071689;28;20079;-48
2024/01/17 06:43:08;;;;;;;;;;;;;;;-4.23;100.00;99401.22;5070806;28;20076;-52
2024/01/17 06:45:37;;;;;;;23.95;8.05;;;;;;;-4.26;100.00;99404.69;5066463;28;20186;-53
2024/01/17 06:48:06;;;;;;;14.40;8.52;;;;;;;-4.20;100.00;99402.84;5067251;28;20135;-49
2024/01/17 06:50:34;;;;;;;18.60;8.50;;;;;;;-4.21;100.00;99396.03;5069611;28;20048;-51
2024/01/17 06:53:03;;;;;;;16.50;9.02;;;;;;;-4.22;100.00;99399.50;5070552;28;20098;-49
2024/01/17 06:55:31;;;;;;;15.73;8.65;;;;;;;-4.19;100.00;99394.28;5072244;28;20044;-49
2024/01/17 06:57:59;;;;;;;13.57;8.20;;;;;;;-4.27;100.00;99386.78;5070283;28;20068;-50
2024/01/17 07:00:28;;;;;;;15.15;8.32;;;;;;;-4.30;100.00;99381.72;5072333;28;20072;-48
2024/01/17 07:03:03;;;;;;;12.88;7.68;;;;;;;-4.35;100.00;99375.88;5073932;28;20048;-50
2024/01/17 07:05:31;;;;;;;13.48;7.93;;;;;;;-4.33;100.00;99369.00;5074025;28;20097;-52
2024/01/17 07:08:00;;;;;;;17.00;8.27;;;;;;;-4.35;100.00;99363.91;5075514;28;20053;-49
2024/01/17 07:10:28;;;;;;;15.00;7.13;;;;;;;-4.35;100.00;99363.03;5073962;28;20079;-49
2024/01/17 07:12:56;;;;;;;15.07;7.50;;;;;;;-4.33;100.00;99367.25;5071247;28;20045;-48
2024/01/17 07:15:25;;;;;;;15.63;7.47;;;;;;;-4.31;100.00;99362.94;5073990;28;20128;-48
2024/01/17 07:17:53;;;;;;;16.17;7.53;;;;;;;-4.21;100.00;99367.78;5073939;28;20051;-49
2024/01/17 07:20:23;;;;;;;13.15;7.10;;;;;;;-4.28;100.00;99365.41;5071902;28;20579;-45
2024/01/17 07:22:53;;;;;;;17.70;7.53;;;;;;;-4.26;100.00;99362.78;5072823;28;20040;-45
2024/01/17 07:25:22;;;;;;;16.92;7.43;;;;;;;-4.26;100.00;99357.66;5075161;28;20570;-46
2024/01/17 07:27:50;;;;;;;15.70;7.70;;;;;;;-4.27;100.00;99351.69;5074952;28;20048;-46
2024/01/17 07:30:19;;;;;;;12.77;7.10;;;;;;;-4.25;100.00;99352.47;5074998;28;20550;-47
2024/01/17 07:32:48;;;;;;;16.10;7.32;;;;;;;-4.29;100.00;99347.47;5074929;28;20040;-49
2024/01/17 07:35:16;;;;;;;12.13;7.10;;;;;;;-4.19;100.00;99340.34;5074959;28;20069;-46
2024/01/17 07:37:45;;;;;;;12.85;7.25;;;;;;;-4.19;100.00;99340.34;5074919;28;20048;-46
2024/01/17 07:40:14;;;;;;;14.10;7.30;;;;;;;-4.23;100.00;99328.47;5074865;28;20050;-46
2024/01/17 07:42:42;;;;;;;15.52;7.35;;;;;;;-4.23;100.00;99323.34;5074624;28;20475;-46
2024/01/17 07:45:11;;;;;;;12.68;6.97;;;;;;;-4.30;100.00;99304.72;5074572;28;20060;-46
2024/01/17 07:47:44;;;;;;;15.15;7.30;;;;;;;-4.28;100.00;99306.34;5074709;28;20487;-46
2024/01/17 07:50:12;;;;;;;13.27;6.97;;;;;;;-4.28;100.00;99320.91;5073951;28;20051;-46
2024/01/17 07:52:40;;;;;;;16.00;6.72;;;;;;;-4.25;100.00;99311.38;5071494;28;20913;-46
2024/01/17 07:55:10;;;;;;;17.52;7.50;;;;;;;-4.23;100.00;99310.50;5073129;28;20056;-46
2024/01/17 07:57:39;;;;;;;17.58;7.65;;;;;;;-4.23;100.00;99313.09;5074606;28;20051;-47
2024/01/17 08:00:09;;;;;;;11.27;6.55;;;;;;;-4.25;100.00;99310.56;5073087;28;20411;-46
2024/01/17 08:02:37;;;;;;;14.27;6.97;;;;;;;-4.23;100.00;99302.81;5074512;28;20573;-46
2024/01/17 08:05:06;;;;;;;16.02;7.57;;;;;;;-4.21;100.00;99291.63;5073394;28;20052;-50
2024/01/17 08:07:36;;;;;;;12.00;6.65;;;;;;;-4.16;100.00;99287.19;5074233;28;20041;-50
2024/01/17 08:10:04;;;;;;;14.77;7.20;;;;;;;-4.13;100.00;99271.69;5071198;28;20381;-46
2024/01/17 08:12:39;;;;;;;13.43;7.60;;;;;;;-4.15;100.00;99263.16;5070742;28;20083;-46
2024/01/17 08:15:09;;;;;;;12.30;7.35;;;;;;;-4.13;100.00;99270.81;5072928;28;20049;-45
2024/01/17 08:17:38;;;;;;;16.02;7.20;;;;;;;-4.12;100.00;99260.53;5068312;28;20040;-45
2024/01/17 08:20:07;;;;;;;13.98;7.15;;;;;;;-4.07;100.00;99261.22;5072403;28;20052;-47
2024/01/17 08:22:36;;;;;;;14.68;7.75;;;;;;;-4.08;100.00;99254.41;5074096;28;20656;-45
2024/01/17 08:25:05;;;;;;;14.23;7.88;;;;;;;-4.05;100.00;99253.44;5072790;28;20495;-45
2024/01/17 08:27:33;;;;;;;13.77;7.55;;;;;;;-4.03;100.00;99244.00;5074237;28;20537;-44
2024/01/17 08:30:05;;;;;;;12.80;6.95;;;;;;;-3.96;100.00;99248.03;5073869;28;20053;-45
2024/01/17 08:32:33;;;;;;;13.35;7.45;;;;;;;-3.98;100.00;99243.84;5073894;28;20433;-45
2024/01/17 08:35:05;;;;;;;14.18;7.40;;;;;;;-3.94;100.00;99237.72;5074040;28;20045;-45
2024/01/17 08:37:35;;;;;;;14.85;7.95;;;;;;;-3.88;100.00;99239.28;5072605;28;20076;-46
2024/01/17 08:40:07;;;;;;;;;;;;;;;-3.86;100.00;99227.22;5072748;28;20381;-45
2024/01/17 08:42:35;;;;;;;14.52;8.18;;;;;;;-3.87;100.00;99221.25;5073727;28;19924;-46
2024/01/17 08:45:06;;;;;;;15.57;7.90;;;;;;;-3.81;100.00;99225.34;5073672;28;20411;-45
2024/01/17 08:47:34;;;;;;;17.08;8.50;;;;;;;-3.80;100.00;99219.31;5073622;28;20066;-46
2024/01/17 08:50:02;;;;;;;15.65;8.40;;;;;;;-3.81;100.00;99215.06;5073469;28;20044;-48
2024/01/17 08:52:31;;;;;;;14.55;8.38;;;;;;;-3.74;100.00;99216.53;5073198;28;20045;-47
2024/01/17 08:55:01;;;;;;;16.42;8.25;;;;;;;-3.71;100.00;99216.44;5073405;28;20064;-45
2024/01/17 08:57:30;;;;;;;15.90;8.27;;;;;;;-3.72;100.00;99212.19;5073660;28;20078;-46
2024/01/17 08:59:58;;;;;;;14.80;8.25;;;;;;;-3.69;100.00;99206.94;5073331;28;20487;-46
2024/01/17 09:02:28;;;;;;;14.82;8.18;;;;;;;-3.67;100.00;99206.91;5073447;28;20055;-46
2024/01/17 09:04:57;;;;;;;15.45;8.20;;;;;;;-3.60;100.00;99198.94;5073172;28;20045;-46
2024/01/17 09:07:25;;;;;;;19.10;8.82;;;;;;;-3.53;100.00;99194.44;5072986;28;20071;-46
2024/01/17 09:09:57;;;;;;;15.32;9.32;;;;;;;-3.55;100.00;99185.09;5073223;28;20095;-45
2024/01/17 09:12:25;;;;;;;16.27;9.25;;;;;;;-3.53;100.00;99191.88;5073196;28;20041;-47
2024/01/17 09:14:54;;;;;;;18.15;8.77;;;;;;;-3.48;100.00;99189.13;5073009;28;20052;-48
2024/01/17 09:17:23;;;;;;;16.75;8.77;;;;;;;-3.45;100.00;99181.31;5072955;28;20036;-45
2024/01/17 09:19:53;;;;;;;16.20;9.15;;;;;;;-3.38;100.00;99177.66;5073232;28;20066;-44
2024/01/17 09:22:21;;;;;;;15.80;9.13;;;;;;;-3.29;100.00;99182.47;5072778;28;20053;-46
2024/01/17 09:24:49;;;;;;;17.98;9.77;;;;;;;-3.20;100.00;99176.19;5071584;28;20044;-47
2024/01/17 09:27:18;;;;;;;16.67;8.48;;;;;;;-3.25;100.00;99175.50;5072917;28;20058;-45
2024/01/17 09:29:47;;;;;;;16.95;8.73;;;;;;;-3.20;100.00;99170.19;5072804;28;20767;-45
2024/01/17 09:32:17;;;;;;;22.40;9.32;;;;;;;-3.17;100.00;99167.50;5072797;28;20040;-46
2024/01/17 09:34:48;;;;;;;16.65;8.93;;;;;;;-3.14;100.00;99151.97;5072665;28;20554;-45
2024/01/17 09:37:18;;;;;;;15.43;8.43;;;;;;;-3.14;100.00;99160.50;5072701;28;20503;-46
2024/01/17 09:39:47;;;;;;;16.20;9.32;;;;;;;-3.11;100.00;99159.56;5071245;28;20152;-45
2024/01/17 09:42:16;;;;;;;16.58;9.00;;;;;;;-3.09;100.00;99162.94;5072909;28;20040;-45
2024/01/17 09:44:44;;;;;;;18.75;8.77;;;;;;;-3.03;100.00;99157.56;5072527;28;20040;-46
2024/01/17 09:47:15;;;;;;;16.83;9.18;;;;;;;-2.98;100.00;99153.09;5070983;28;20053;-46
2024/01/17 09:49:44;;;;;;;17.45;9.30;;;;;;;-2.85;100.00;99157.78;5072497;28;20052;-46
2024/01/17 09:52:15;;;;;;;18.13;9.43;;;;;;;-2.80;100.00;99148.16;5072390;28;20109;-46
2024/01/17 09:54:47;;;;;;;15.88;9.18;;;;;;;-2.76;100.00;99149.72;5071938;28;20036;-45
2024/01/17 09:57:22;;;;;;;19.38;9.07;;;;;;;-2.78;100.00;99146.34;5072007;28;20059;-47
2024/01/17 09:59:56;;;;;;;19.70;9.93;;;;;;;-2.73;100.00;99140.16;5072208;28;20044;-45
2024/01/17 10:02:27;;;;;;;15.35;9.10;;;;;;;-2.65;100.00;99146.75;5072418;28;20041;-45
2024/01/17 10:04:57;;;;;;;18.25;10.07;;;;;;;-2.63;100.00;99152.66;5071906;28;20101;-45
2024/01/17 10:07:26;;;;;;;19.25;9.73;;;;;;;-2.61;100.00;99150.88;5068919;28;20055;-47
2024/01/17 10:09:56;;;;;;;18.27;9.30;;;;;;;-2.56;100.00;99154.13;5070103;28;20067;-48
2024/01/17 10:12:27;;;;;;;18.10;10.25;;;;;;;-2.49;100.00;99140.13;5072176;28;20042;-48
2024/01/17 10:14:58;;;;;;;18.88;9.82;;;;;;;-2.52;100.00;99140.25;5069047;28;20076;-47
2024/01/17 10:17:26;;;;;;;17.05;9.85;;;;;;;-2.42;100.00;99133.00;5068473;28;20071;-46
2024/01/17 10:19:54;;;;;;;20.00;10.43;;;;;;;-2.45;100.00;99126.22;5072047;28;20047;-47
2024/01/17 10:22:25;;;;;;;17.13;9.40;;;;;;;-2.43;100.00;99111.53;5072074;28;20048;-47
2024/01/17 10:24:56;;;;;;;16.27;9.38;;;;;;;-2.36;100.00;99109.56;5072076;28;20587;-48
2024/01/17 10:27:28;;;;;;;15.13;8.25;;;;;;;-2.31;100.00;99106.81;5071645;28;20080;-47
2024/01/17 10:30:01;;;;;;;16.45;9.20;;;;;;;-2.25;100.00;99106.56;5070680;28;20064;-46
2024/01/17 10:32:41;;;;;;;16.40;8.88;;;;;;;-2.22;100.00;99101.31;5072119;28;20075;-48
2024/01/17 10:35:11;;;;;;;16.27;8.68;;;;;;;-2.22;100.00;99093.59;5071918;28;20123;-47
2024/01/17 10:37:43;;;;;;;15.85;9.13;;;;;;;-2.15;100.00;99083.88;5071614;28;20403;-45
2024/01/17 10:40:15;;;;;;;21.53;10.73;;;;;;;-2.11;100.00;99083.69;5071805;28;20052;-47
2024/01/17 10:42:47;;;;;;;17.85;9.60;;;;;;;-2.13;100.00;99072.59;5070422;28;20055;-45
2024/01/17 10:45:23;;;;;;;17.10;9.25;;;;;;;-2.15;100.00;99069.25;5071716;28;20144;-46
2024/01/17 10:47:53;;;;;;;18.80;9.93;;;;;;;-2.15;100.00;99063.28;5071713;28;20044;-46
2024/01/17 10:50:22;;;;;;;16.67;8.88;;;;;;;-2.12;100.00;99066.53;5071878;28;20059;-47
2024/01/17 10:52:52;;;;;;;18.60;10.35;;;;;;;-2.07;100.00;99068.94;5071834;28;20078;-47
2024/01/17 10:55:29;;;;;;;17.67;9.73;;;;;;;-1.97;100.00;99071.97;5070466;28;20130;-49
2024/01/17 10:58:09;;;;;;;15.30;9.02;;;;;;;-1.92;100.00;99060.56;5070301;28;20044;-45
2024/01/17 11:00:41;;;;;;;18.70;10.15;;;;;;;-1.86;100.00;99064.59;5070397;28;20044;-46
2024/01/17 11:03:11;;;;;;;18.50;9.60;;;;;;;-1.83;100.00;99053.34;5071436;28;20044;-46
2024/01/17 11:05:46;;;;;;;18.30;9.30;;;;;;;-1.78;100.00;99047.09;5071398;28;20056;-45
2024/01/17 11:08:15;;;;;;;15.82;9.05;;;;;;;-1.83;100.00;99050.75;5071377;28;20045;-46
2024/01/17 11:10:46;;;;;;;16.00;8.82;;;;;;;-1.77;100.00;99046.19;5071395;28;20059;-45
2024/01/17 11:13:16;;;;;;;16.85;9.15;;;;;;;-1.73;100.00;99044.31;5071344;28;20072;-46
2024/01/17 11:15:45;;;;;;;16.88;9.30;;;;;;;-1.73;100.00;99036.59;5071584;28;20106;-46
2024/01/17 11:18:14;;;;;;;17.67;9.38;;;;;;;-1.72;100.00;99036.53;5071003;28;20134;-46
2024/01/17 11:20:47;;;;;;;16.27;9.55;;;;;;;-1.66;100.00;99032.84;5071008;28;20049;-47
2024/01/17 11:23:25;;;;;;;15.85;9.13;;;;;;;-1.61;100.00;99023.16;5071496;28;20048;-45
2024/01/17 11:26:07;;;;;;;15.07;8.38;;;;;;;-1.60;100.00;99018.84;5071625;28;20106;-47